createdAt,value
2022-09-05T00:00:45.153Z,16.86
2022-09-05T00:03:40.199Z,16.84
2022-09-05T00:06:17.368Z,16.82
2022-09-05T00:09:08.483Z,16.81
2022-09-05T00:11:58.853Z,16.81
2022-09-05T00:15:14.893Z,16.80
2022-09-05T00:22:17.188Z,16.78
2022-09-05T00:24:35.545Z,16.70
2022-09-05T00:24:37.503Z,16.72
2022-09-05T00:27:09.098Z,16.74
2022-09-05T00:31:07.465Z,16.70
2022-09-05T00:32:42.228Z,16.68
2022-09-05T00:35:51.111Z,16.69
2022-09-05T00:38:27.591Z,16.69
2022-09-05T00:41:34.325Z,16.66
2022-09-05T00:44:09.241Z,16.66
2022-09-05T00:46:59.390Z,16.69
2022-09-05T00:49:54.698Z,16.69
2022-09-05T00:52:26.142Z,16.67
2022-09-05T00:55:16.241Z,16.71
2022-09-05T00:57:50.997Z,16.70
2022-09-05T01:01:19.764Z,16.69
2022-09-05T01:04:05.772Z,16.70
2022-09-05T01:06:53.803Z,16.70
2022-09-05T01:09:39.128Z,16.67
2022-09-05T01:12:11.645Z,16.69
2022-09-05T01:15:03.119Z,16.70
2022-09-05T01:18:00.247Z,16.70
2022-09-05T01:20:53.393Z,16.70
2022-09-05T01:23:36.815Z,16.71
2022-09-05T01:26:37.881Z,16.70
2022-09-05T01:29:28.605Z,16.71
2022-09-05T01:32:35.413Z,16.70
2022-09-05T01:35:28.944Z,16.68
2022-09-05T01:38:24.316Z,16.68
2022-09-05T01:41:37.211Z,16.68
2022-09-05T01:44:45.841Z,16.67
2022-09-05T01:47:46.205Z,16.66
2022-09-05T01:50:57.991Z,16.68
2022-09-05T01:54:29.877Z,16.68
2022-09-05T01:57:47.760Z,16.70
2022-09-05T02:01:32.021Z,16.72
2022-09-05T02:04:21.792Z,16.73
2022-09-05T02:07:20.094Z,16.74
2022-09-05T02:10:38.382Z,16.75
2022-09-05T02:13:26.908Z,16.77
2022-09-05T02:16:45.547Z,16.78
2022-09-05T02:19:34.673Z,16.79
2022-09-05T02:22:11.500Z,16.81
2022-09-05T02:26:01.592Z,16.81
2022-09-05T02:28:34.894Z,16.81
2022-09-05T02:31:19.850Z,16.83
2022-09-05T02:34:14.237Z,16.84
2022-09-05T02:39:38.221Z,16.85
2022-09-05T02:45:08.056Z,16.81
2022-09-05T02:45:12.357Z,16.83
2022-09-05T02:46:36.669Z,16.83
2022-09-05T02:52:14.293Z,16.84
2022-09-05T02:57:28.629Z,16.84
2022-09-05T02:57:41.589Z,16.84
2022-09-05T02:59:36.295Z,16.85
2022-09-05T03:02:56.484Z,16.85
2022-09-05T03:06:34.864Z,16.83
2022-09-05T03:09:17.806Z,16.82
2022-09-05T03:12:29.354Z,16.82
2022-09-05T03:14:54.315Z,16.82
2022-09-05T03:17:48.811Z,16.82
2022-09-05T03:20:21.815Z,16.82
2022-09-05T03:23:24.044Z,16.82
2022-09-05T03:25:52.249Z,16.81
2022-09-05T03:29:10.105Z,16.83
2022-09-05T03:31:59.025Z,16.82
2022-09-05T03:35:12.259Z,16.81
2022-09-05T03:38:19.814Z,16.81
2022-09-05T03:40:55.923Z,16.81
2022-09-05T03:43:58.247Z,16.81
2022-09-05T03:46:44.577Z,16.79
2022-09-05T03:55:38.772Z,16.79
2022-09-05T03:57:15.590Z,16.78
2022-09-05T03:57:27.903Z,16.78
2022-09-05T03:59:26.189Z,16.78
2022-09-05T04:08:08.219Z,16.75
2022-09-05T04:08:13.702Z,16.75
2022-09-05T04:08:43.249Z,16.75
2022-09-05T04:11:39.125Z,16.74
2022-09-05T04:14:31.370Z,16.74
2022-09-05T04:17:21.246Z,16.72
2022-09-05T04:20:15.944Z,16.73
2022-09-05T04:23:01.840Z,16.71
2022-09-05T04:26:11.237Z,16.70
2022-09-05T04:28:53.750Z,16.70
2022-09-05T04:31:59.019Z,16.69
2022-09-05T04:34:37.351Z,16.62
2022-09-05T04:37:07.848Z,16.65
2022-09-05T04:39:35.878Z,16.66
2022-09-05T04:42:05.946Z,16.65
2022-09-05T04:44:51.058Z,16.65
2022-09-05T04:47:34.751Z,16.66
2022-09-05T04:50:09.371Z,16.67
2022-09-05T04:52:57.456Z,16.64
2022-09-05T04:55:28.418Z,16.63
2022-09-05T04:58:07.419Z,16.58
2022-09-05T05:06:00.542Z,16.62
2022-09-05T05:06:15.487Z,16.61
2022-09-05T05:06:45.895Z,16.61
2022-09-05T05:09:31.618Z,16.61
2022-09-05T05:17:55.747Z,16.60
2022-09-05T05:18:02.615Z,16.59
2022-09-05T05:18:36.529Z,16.59
2022-09-05T05:21:17.678Z,16.59
2022-09-05T05:23:52.288Z,16.58
2022-09-05T05:26:32.518Z,16.58
2022-09-05T05:29:02.218Z,16.57
2022-09-05T05:31:35.215Z,16.57
2022-09-05T05:34:14.564Z,16.56
2022-09-05T05:37:00.661Z,16.56
2022-09-05T05:39:30.128Z,16.56
2022-09-05T05:41:58.939Z,16.56
2022-09-05T05:44:36.748Z,16.56
2022-09-05T05:47:18.562Z,16.55
2022-09-05T05:50:13.559Z,16.56
2022-09-05T05:53:33.646Z,16.54
2022-09-05T05:56:40.134Z,16.55
2022-09-05T05:59:28.799Z,16.55
2022-09-05T06:01:58.552Z,16.55
2022-09-05T06:05:03.213Z,16.55
2022-09-05T06:09:26.824Z,16.55
2022-09-05T06:14:57.365Z,16.58
2022-09-05T06:14:59.472Z,16.57
2022-09-05T06:17:35.237Z,16.60
2022-09-05T06:21:56.149Z,16.64
2022-09-05T06:23:33.474Z,16.67
2022-09-05T06:26:42.460Z,16.71
2022-09-05T06:29:38.559Z,16.75
2022-09-05T06:32:33.800Z,16.79
2022-09-05T06:35:19.101Z,16.83
2022-09-05T06:38:10.697Z,16.88
2022-09-05T06:41:05.302Z,16.93
2022-09-05T06:44:02.660Z,16.98
2022-09-05T06:46:54.900Z,17.04
2022-09-05T06:49:38.307Z,17.10
2022-09-05T06:52:45.738Z,17.18
2022-09-05T06:55:33.897Z,17.24
2022-09-05T06:58:09.694Z,17.31
2022-09-05T07:00:47.948Z,17.36
2022-09-05T07:03:33.357Z,17.43
2022-09-05T07:06:52.337Z,17.51
2022-09-05T07:09:34.391Z,17.57
2022-09-05T07:12:30.056Z,17.64
2022-09-05T07:15:47.317Z,17.74
2022-09-05T07:18:26.178Z,17.82
2022-09-05T07:21:16.016Z,17.89
2022-09-05T07:24:10.294Z,17.97
2022-09-05T07:26:53.671Z,18.06
2022-09-05T07:29:32.236Z,18.14
2022-09-05T07:32:02.242Z,18.21
2022-09-05T07:34:37.864Z,18.28
2022-09-05T07:37:14.855Z,18.37
2022-09-05T07:39:58.201Z,18.43
2022-09-05T07:43:09.472Z,18.54
2022-09-05T07:46:11.633Z,18.66
2022-09-05T07:48:46.914Z,18.72
2022-09-05T07:56:46.687Z,18.81
2022-09-05T07:56:49.872Z,18.94
2022-09-05T07:57:46.850Z,19.01
2022-09-05T08:00:29.088Z,19.11
2022-09-05T08:03:08.761Z,19.19
2022-09-05T08:05:42.326Z,19.25
2022-09-05T08:08:14.552Z,19.33
2022-09-05T08:11:25.629Z,19.41
2022-09-05T08:14:02.361Z,19.51
2022-09-05T08:16:43.154Z,19.60
2022-09-05T08:19:14.018Z,19.69
2022-09-05T08:21:51.712Z,19.79
2022-09-05T08:24:36.680Z,19.88
2022-09-05T08:27:19.060Z,19.97
2022-09-05T08:30:06.443Z,20.07
2022-09-05T08:33:11.399Z,20.19
2022-09-05T08:35:44.364Z,20.27
2022-09-05T08:38:14.756Z,20.37
2022-09-05T08:41:05.698Z,20.45
2022-09-05T08:46:35.293Z,20.54
2022-09-05T08:46:49.073Z,20.62
2022-09-05T08:49:41.432Z,20.72
2022-09-05T08:52:26.231Z,20.83
2022-09-05T08:55:11.422Z,20.88
2022-09-05T08:58:09.719Z,21.03
2022-09-05T09:00:55.182Z,21.11
2022-09-05T09:03:36.238Z,21.19
2022-09-05T09:06:15.596Z,21.26
2022-09-05T09:09:20.123Z,21.34
2022-09-05T09:11:55.254Z,21.44
2022-09-05T09:14:40.817Z,21.54
2022-09-05T09:17:31.538Z,21.64
2022-09-05T09:20:14.320Z,21.71
2022-09-05T09:22:59.277Z,21.81
2022-09-05T09:26:03.597Z,21.90
2022-09-05T09:28:50.651Z,22.01
2022-09-05T09:31:21.615Z,22.09
2022-09-05T09:34:27.119Z,22.16
2022-09-05T09:37:15.694Z,22.23
2022-09-05T09:40:14.297Z,22.30
2022-09-05T09:42:57.375Z,22.36
2022-09-05T09:45:45.378Z,22.41
2022-09-05T09:49:05.128Z,22.51
2022-09-05T09:52:22.087Z,22.60
2022-09-05T09:55:21.341Z,22.68
2022-09-05T09:58:24.144Z,22.78
2022-09-05T10:01:35.582Z,22.85
2022-09-05T10:10:00.903Z,22.93
2022-09-05T10:10:54.003Z,23.03
2022-09-05T10:11:34.047Z,23.09
2022-09-05T10:13:55.631Z,23.18
2022-09-05T10:16:53.490Z,23.24
2022-09-05T10:22:37.499Z,23.41
2022-09-05T10:25:42.169Z,23.51
2022-09-05T10:28:30.214Z,23.58
2022-09-05T10:34:18.821Z,23.67
2022-09-05T10:35:13.152Z,23.75
2022-09-05T10:37:12.395Z,23.80
2022-09-05T10:39:45.517Z,23.85
2022-09-05T10:42:38.478Z,23.93
2022-09-05T10:45:38.318Z,23.99
2022-09-05T10:48:24.098Z,24.08
2022-09-05T10:51:01.527Z,24.17
2022-09-05T10:54:09.153Z,24.23
2022-09-05T10:56:52.633Z,24.31
2022-09-05T11:02:08.127Z,24.36
2022-09-05T11:02:33.627Z,24.40
2022-09-05T11:05:15.407Z,24.41
2022-09-05T11:07:48.615Z,24.46
2022-09-05T11:10:22.976Z,24.49
2022-09-05T11:13:11.600Z,24.55
2022-09-05T11:16:06.759Z,24.63
2022-09-05T11:19:05.955Z,24.68
2022-09-05T11:21:44.873Z,24.72
2022-09-05T11:24:42.331Z,24.77
2022-09-05T11:27:31.673Z,24.81
2022-09-05T11:30:07.271Z,24.82
2022-09-05T11:39:51.197Z,24.93
2022-09-05T11:40:00.116Z,24.87
2022-09-05T11:40:02.600Z,24.97
2022-09-05T11:42:08.215Z,25.04
2022-09-05T11:44:39.467Z,25.07
2022-09-05T11:47:57.034Z,25.12
2022-09-05T11:50:49.711Z,25.14
2022-09-05T11:53:16.563Z,25.14
2022-09-05T11:55:58.786Z,25.17
2022-09-05T11:58:45.998Z,25.18
2022-09-05T12:01:44.330Z,25.19
2022-09-05T12:04:29.698Z,25.20
2022-09-05T12:07:38.095Z,25.21
2022-09-05T12:10:47.116Z,25.21
2022-09-05T12:13:37.029Z,25.22
2022-09-05T12:16:26.624Z,25.25
2022-09-05T12:19:18.910Z,25.23
2022-09-05T12:22:16.442Z,25.23
2022-09-05T12:25:25.478Z,25.22
2022-09-05T12:28:24.163Z,25.23
2022-09-05T12:31:39.073Z,25.23
2022-09-05T12:36:05.425Z,25.25
2022-09-05T12:40:19.736Z,25.27
2022-09-05T12:40:58.519Z,25.24
2022-09-05T12:42:26.019Z,25.25
2022-09-05T12:45:11.558Z,25.25
2022-09-05T12:48:01.152Z,25.26
2022-09-05T12:51:00.023Z,25.26
2022-09-05T12:53:40.968Z,25.27
2022-09-05T12:56:18.519Z,25.27
2022-09-05T13:03:04.204Z,25.24
2022-09-05T13:03:06.943Z,25.28
2022-09-05T13:05:02.730Z,25.29
2022-09-05T13:07:40.400Z,25.29
2022-09-05T13:11:57.122Z,25.30
2022-09-05T13:15:03.095Z,25.31
2022-09-05T13:16:01.348Z,25.30
2022-09-05T13:18:39.166Z,25.31
2022-09-05T13:21:12.052Z,25.32
2022-09-05T13:23:53.532Z,25.32
2022-09-05T13:26:39.969Z,25.32
2022-09-05T13:30:09.886Z,25.32
2022-09-05T13:37:59.371Z,25.28
2022-09-05T13:38:04.871Z,25.31
2022-09-05T13:38:48.607Z,25.30
2022-09-05T13:41:28.423Z,25.32
2022-09-05T13:44:00.242Z,25.35
2022-09-05T13:47:28.826Z,25.37
2022-09-05T13:50:05.850Z,25.38
2022-09-05T13:52:40.487Z,25.39
2022-09-05T13:55:10.598Z,25.39
2022-09-05T13:58:07.232Z,25.40
2022-09-05T14:00:40.046Z,25.40
2022-09-05T14:03:42.995Z,25.44
2022-09-05T14:06:48.933Z,25.49
2022-09-05T14:12:25.501Z,25.48
2022-09-05T14:15:10.515Z,25.50
2022-09-05T14:18:21.539Z,25.53
2022-09-05T14:21:16.841Z,25.53
2022-09-05T14:23:53.745Z,25.54
2022-09-05T14:26:35.383Z,25.51
2022-09-05T14:29:14.373Z,25.52
2022-09-05T14:37:40.386Z,25.50
2022-09-05T14:38:00.979Z,25.51
2022-09-05T14:38:39.997Z,25.51
2022-09-05T14:41:39.855Z,25.51
2022-09-05T14:44:56.847Z,25.50
2022-09-05T14:47:35.224Z,25.47
2022-09-05T14:50:29.352Z,25.50
2022-09-05T14:56:13.718Z,25.50
2022-09-05T15:02:54.611Z,25.51
2022-09-05T15:02:57.495Z,25.50
2022-09-05T15:07:06.253Z,25.50
2022-09-05T15:12:15.834Z,25.53
2022-09-05T15:12:38.600Z,25.55
2022-09-05T15:15:26.040Z,25.55
2022-09-05T15:17:57.964Z,25.58
2022-09-05T15:20:31.160Z,25.58
2022-09-05T15:22:58.368Z,25.60
2022-09-05T15:25:50.602Z,25.60
2022-09-05T15:28:20.269Z,25.60
2022-09-05T15:31:00.064Z,25.62
2022-09-05T15:33:30.258Z,25.60
2022-09-05T15:35:58.647Z,25.62
2022-09-05T15:38:29.274Z,25.60
2022-09-05T15:41:02.474Z,25.62
2022-09-05T15:43:30.320Z,25.55
2022-09-05T15:46:05.060Z,25.61
2022-09-05T15:48:34.958Z,25.59
2022-09-05T15:51:18.001Z,25.60
2022-09-05T15:53:45.102Z,25.58
2022-09-05T15:56:11.957Z,25.59
2022-09-05T15:58:54.902Z,25.58
2022-09-05T16:01:59.464Z,25.59
2022-09-05T16:09:16.629Z,25.54
2022-09-05T16:10:33.561Z,25.56
2022-09-05T16:10:45.711Z,25.54
2022-09-05T16:12:56.902Z,25.55
2022-09-05T16:19:38.971Z,25.56
2022-09-05T16:23:17.546Z,25.57
2022-09-05T16:23:37.996Z,25.57
2022-09-05T16:24:16.761Z,25.55
2022-09-05T16:26:54.173Z,25.55
2022-09-05T16:29:28.191Z,25.54
2022-09-05T16:32:05.477Z,25.52
2022-09-05T16:34:48.402Z,25.52
2022-09-05T16:37:28.001Z,25.50
2022-09-05T16:40:05.624Z,25.48
2022-09-05T16:42:47.914Z,25.48
2022-09-05T16:45:31.012Z,25.46
2022-09-05T16:48:16.097Z,25.43
2022-09-05T16:50:50.441Z,25.41
2022-09-05T16:53:30.543Z,25.36
2022-09-05T16:56:04.320Z,25.32
2022-09-05T16:58:42.080Z,25.30
2022-09-05T17:01:23.121Z,25.27
2022-09-05T17:04:04.280Z,25.20
2022-09-05T17:06:45.706Z,25.16
2022-09-05T17:09:38.733Z,25.09
2022-09-05T17:12:27.020Z,25.04
2022-09-05T17:15:20.683Z,24.96
2022-09-05T17:18:19.251Z,24.93
2022-09-05T17:20:51.156Z,24.86
2022-09-05T17:27:19.895Z,24.81
2022-09-05T17:29:34.132Z,24.75
2022-09-05T17:32:21.315Z,24.61
2022-09-05T17:35:17.681Z,24.61
2022-09-05T17:38:16.077Z,24.54
2022-09-05T17:40:51.660Z,24.48
2022-09-05T17:43:28.797Z,24.43
2022-09-05T17:46:20.323Z,24.39
2022-09-05T17:48:49.281Z,24.30
2022-09-05T17:51:36.025Z,24.26
2022-09-05T17:54:08.194Z,24.24
2022-09-05T17:56:40.400Z,24.18
2022-09-05T17:59:25.222Z,24.12
2022-09-05T18:02:07.886Z,24.09
2022-09-05T18:04:50.212Z,24.05
2022-09-05T18:07:23.016Z,24.00
2022-09-05T18:10:14.686Z,23.93
2022-09-05T18:15:36.045Z,23.79
2022-09-05T18:18:08.458Z,23.79
2022-09-05T18:20:49.681Z,23.74
2022-09-05T18:23:37.106Z,23.66
2022-09-05T18:26:17.906Z,23.61
2022-09-05T18:28:59.204Z,23.56
2022-09-05T18:31:40.747Z,23.50
2022-09-05T18:34:19.002Z,23.45
2022-09-05T18:36:50.393Z,23.40
2022-09-05T18:39:26.215Z,23.35
2022-09-05T18:42:26.258Z,23.30
2022-09-05T18:44:59.780Z,23.23
2022-09-05T18:47:34.111Z,23.16
2022-09-05T18:50:24.760Z,23.13
2022-09-05T18:53:10.393Z,23.06
2022-09-05T18:56:14.352Z,23.02
2022-09-05T18:59:09.971Z,22.96
2022-09-05T19:01:40.574Z,22.90
2022-09-05T19:04:33.013Z,22.88
2022-09-05T19:07:08.052Z,22.82
2022-09-05T19:09:38.124Z,22.77
2022-09-05T19:12:33.172Z,22.72
2022-09-05T19:15:07.020Z,22.69
2022-09-05T19:17:47.129Z,22.65
2022-09-05T19:20:33.716Z,22.60
2022-09-05T19:23:11.947Z,22.55
2022-09-05T19:25:43.428Z,22.49
2022-09-05T19:36:53.598Z,22.39
2022-09-05T19:36:58.356Z,22.46
2022-09-05T19:37:08.357Z,22.33
2022-09-05T19:37:29.084Z,22.28
2022-09-05T19:44:39.031Z,22.21
2022-09-05T19:47:34.073Z,22.18
2022-09-05T19:47:56.239Z,22.14
2022-09-05T19:48:35.208Z,22.09
2022-09-05T19:51:17.598Z,22.04
2022-09-05T19:53:47.046Z,21.98
2022-09-05T19:56:14.158Z,21.94
2022-09-05T19:58:44.376Z,21.87
2022-09-05T20:01:17.693Z,21.86
2022-09-05T20:03:48.457Z,21.79
2022-09-05T20:06:28.951Z,21.75
2022-09-05T20:09:16.218Z,21.69
2022-09-05T20:11:57.984Z,21.65
2022-09-05T20:14:30.691Z,21.59
2022-09-05T20:17:18.444Z,21.54
2022-09-05T20:19:45.768Z,21.47
2022-09-05T20:22:47.828Z,21.43
2022-09-05T20:25:19.758Z,21.40
2022-09-05T20:28:07.586Z,21.35
2022-09-05T20:30:41.931Z,21.31
2022-09-05T20:33:32.595Z,21.28
2022-09-05T20:43:03.705Z,21.23
2022-09-05T20:43:28.947Z,21.14
2022-09-05T20:43:30.694Z,21.19
2022-09-05T20:45:45.919Z,21.10
2022-09-05T20:54:07.983Z,21.07
2022-09-05T20:54:28.948Z,21.03
2022-09-05T20:54:32.023Z,20.97
2022-09-05T20:57:03.569Z,20.99
2022-09-05T20:59:42.871Z,20.94
2022-09-05T21:02:34.226Z,20.97
2022-09-05T21:05:20.002Z,20.95
2022-09-05T21:08:05.101Z,20.88
2022-09-05T21:10:55.990Z,20.85
2022-09-05T21:13:29.492Z,20.77
2022-09-05T21:16:01.576Z,20.76
2022-09-05T21:18:36.423Z,20.77
2022-09-05T21:21:28.004Z,20.72
2022-09-05T21:24:17.303Z,20.67
2022-09-05T21:26:49.974Z,20.62
2022-09-05T21:29:25.570Z,20.59
2022-09-05T21:32:01.614Z,20.56
2022-09-05T21:34:51.523Z,20.51
2022-09-05T21:37:23.452Z,20.44
2022-09-05T21:40:06.230Z,20.40
2022-09-05T21:47:33.048Z,20.34
2022-09-05T21:47:42.245Z,20.36
2022-09-05T21:48:10.568Z,20.31
2022-09-05T21:50:58.346Z,20.25
2022-09-05T21:59:13.516Z,20.22
2022-09-05T21:59:18.801Z,20.14
2022-09-05T21:59:46.586Z,20.11
2022-09-05T22:02:18.373Z,20.03
2022-09-05T22:04:47.630Z,20.01
2022-09-05T22:07:32.951Z,19.99
2022-09-05T22:10:04.655Z,19.95
2022-09-05T22:12:35.798Z,19.89
2022-09-05T22:15:17.143Z,19.86
2022-09-05T22:18:11.748Z,19.80
2022-09-05T22:20:53.453Z,19.80
2022-09-05T22:23:47.818Z,19.76
2022-09-05T22:26:24.953Z,19.73
2022-09-05T22:29:02.394Z,19.69
2022-09-05T22:34:11.339Z,19.63
2022-09-05T22:36:38.754Z,19.62
2022-09-05T22:39:09.108Z,19.54
2022-09-05T22:44:17.224Z,19.54
2022-09-05T22:46:44.269Z,19.49
2022-09-05T22:49:11.580Z,19.52
2022-09-05T22:51:38.929Z,19.52
2022-09-05T22:54:19.316Z,19.46
2022-09-05T22:56:49.687Z,19.49
2022-09-05T22:59:17.133Z,19.45
2022-09-05T23:01:44.220Z,19.43
2022-09-05T23:04:11.323Z,19.42
2022-09-05T23:06:38.761Z,19.34
2022-09-05T23:09:08.039Z,19.41
2022-09-05T23:11:35.695Z,19.35
2022-09-05T23:14:02.958Z,19.34
2022-09-05T23:16:30.139Z,19.33
2022-09-05T23:19:00.528Z,19.33
2022-09-05T23:21:31.105Z,19.30
2022-09-05T23:24:02.389Z,19.29
2022-09-05T23:26:35.476Z,19.27
2022-09-05T23:29:05.475Z,19.23
2022-09-05T23:31:34.216Z,19.21
2022-09-05T23:34:16.894Z,19.19
2022-09-05T23:36:45.696Z,19.17
2022-09-05T23:39:15.450Z,19.17
2022-09-05T23:41:43.876Z,19.16
2022-09-05T23:44:17.038Z,19.15
2022-09-05T23:46:48.173Z,19.12
2022-09-05T23:49:16.161Z,19.08
2022-09-05T23:51:45.444Z,19.10
2022-09-05T23:54:13.299Z,19.10
2022-09-05T23:56:43.024Z,19.02
2022-09-05T23:59:12.005Z,19.03
